sensor_id;sensor_type;location;lat;lon;timestamp;temperature;humidity
52439;DHT22;73188;52.948;6.012;2023-12-28T00:02:26;14.10;99.90
52439;DHT22;73188;52.948;6.012;2023-12-28T00:12:51;14.20;99.90
52439;DHT22;73188;52.948;6.012;2023-12-28T00:23:18;14.30;99.90
52439;DHT22;73188;52.948;6.012;2023-12-28T00:33:45;14.40;99.90
52439;DHT22;73188;52.948;6.012;2023-12-28T00:44:11;14.40;99.90
52439;DHT22;73188;52.948;6.012;2023-12-28T00:54:37;14.10;99.90
52439;DHT22;73188;52.948;6.012;2023-12-28T01:05:03;14.10;99.90
52439;DHT22;73188;52.948;6.012;2023-12-28T01:15:29;14.10;99.90
52439;DHT22;73188;52.948;6.012;2023-12-28T01:25:55;14.20;99.90
52439;DHT22;73188;52.948;6.012;2023-12-28T01:36:22;14.30;99.90
52439;DHT22;73188;52.948;6.012;2023-12-28T01:46:48;14.40;99.90
52439;DHT22;73188;52.948;6.012;2023-12-28T01:57:14;14.40;99.90
52439;DHT22;73188;52.948;6.012;2023-12-28T02:07:41;14.40;99.90
52439;DHT22;73188;52.948;6.012;2023-12-28T02:18:17;14.40;99.90
52439;DHT22;73188;52.948;6.012;2023-12-28T02:28:45;14.40;99.90
52439;DHT22;73188;52.948;6.012;2023-12-28T02:39:14;14.70;99.90
52439;DHT22;73188;52.948;6.012;2023-12-28T02:49:40;14.80;99.90
52439;DHT22;73188;52.948;6.012;2023-12-28T03:00:07;14.90;99.90
52439;DHT22;73188;52.948;6.012;2023-12-28T03:10:35;14.70;99.90
52439;DHT22;73188;52.948;6.012;2023-12-28T03:21:03;14.70;99.90
52439;DHT22;73188;52.948;6.012;2023-12-28T03:31:29;14.70;99.90
52439;DHT22;73188;52.948;6.012;2023-12-28T03:41:54;14.70;99.90
52439;DHT22;73188;52.948;6.012;2023-12-28T03:52:20;14.60;99.90
52439;DHT22;73188;52.948;6.012;2023-12-28T04:02:46;14.50;99.90
52439;DHT22;73188;52.948;6.012;2023-12-28T04:13:12;14.50;99.90
52439;DHT22;73188;52.948;6.012;2023-12-28T04:23:39;14.30;99.90
52439;DHT22;73188;52.948;6.012;2023-12-28T04:34:05;14.30;99.90
52439;DHT22;73188;52.948;6.012;2023-12-28T04:44:31;14.40;99.90
52439;DHT22;73188;52.948;6.012;2023-12-28T04:54:57;14.40;99.90
52439;DHT22;73188;52.948;6.012;2023-12-28T05:05:23;14.50;99.90
52439;DHT22;73188;52.948;6.012;2023-12-28T05:15:49;14.60;99.90
52439;DHT22;73188;52.948;6.012;2023-12-28T05:26:14;14.60;99.90
52439;DHT22;73188;52.948;6.012;2023-12-28T05:36:41;14.60;99.90
52439;DHT22;73188;52.948;6.012;2023-12-28T05:47:07;14.60;99.90
52439;DHT22;73188;52.948;6.012;2023-12-28T05:57:33;14.50;99.90
52439;DHT22;73188;52.948;6.012;2023-12-28T06:07:59;14.50;99.90
52439;DHT22;73188;52.948;6.012;2023-12-28T06:18:24;14.50;99.90
52439;DHT22;73188;52.948;6.012;2023-12-28T06:28:50;14.50;99.90
52439;DHT22;73188;52.948;6.012;2023-12-28T06:39:16;14.60;99.90
52439;DHT22;73188;52.948;6.012;2023-12-28T06:49:42;14.60;99.90
52439;DHT22;73188;52.948;6.012;2023-12-28T07:00:08;14.60;99.90
52439;DHT22;73188;52.948;6.012;2023-12-28T07:10:34;14.60;99.90
52439;DHT22;73188;52.948;6.012;2023-12-28T07:21:01;14.60;99.90
52439;DHT22;73188;52.948;6.012;2023-12-28T07:31:27;14.50;99.90
52439;DHT22;73188;52.948;6.012;2023-12-28T07:41:53;14.50;99.90
52439;DHT22;73188;52.948;6.012;2023-12-28T07:52:19;14.50;99.90
52439;DHT22;73188;52.948;6.012;2023-12-28T08:02:45;14.70;99.90
52439;DHT22;73188;52.948;6.012;2023-12-28T08:13:11;14.70;99.90
52439;DHT22;73188;52.948;6.012;2023-12-28T08:23:36;14.80;99.90
52439;DHT22;73188;52.948;6.012;2023-12-28T08:34:02;14.80;99.90
52439;DHT22;73188;52.948;6.012;2023-12-28T08:44:28;14.90;99.90
52439;DHT22;73188;52.948;6.012;2023-12-28T08:54:54;14.90;99.90
52439;DHT22;73188;52.948;6.012;2023-12-28T09:05:20;14.80;99.90
52439;DHT22;73188;52.948;6.012;2023-12-28T09:15:46;14.90;99.90
52439;DHT22;73188;52.948;6.012;2023-12-28T09:26:12;14.90;99.90
52439;DHT22;73188;52.948;6.012;2023-12-28T09:36:38;15.00;99.90
52439;DHT22;73188;52.948;6.012;2023-12-28T09:47:04;15.00;99.90
52439;DHT22;73188;52.948;6.012;2023-12-28T09:57:32;15.10;99.90
52439;DHT22;73188;52.948;6.012;2023-12-28T10:07:58;15.10;99.90
52439;DHT22;73188;52.948;6.012;2023-12-28T10:18:24;15.10;99.90
52439;DHT22;73188;52.948;6.012;2023-12-28T10:28:50;15.20;99.90
52439;DHT22;73188;52.948;6.012;2023-12-28T10:39:19;15.20;99.90
52439;DHT22;73188;52.948;6.012;2023-12-28T10:49:48;15.10;99.90
52439;DHT22;73188;52.948;6.012;2023-12-28T11:00:19;15.00;99.90
52439;DHT22;73188;52.948;6.012;2023-12-28T11:10:47;15.00;99.90
52439;DHT22;73188;52.948;6.012;2023-12-28T11:21:13;14.80;99.90
52439;DHT22;73188;52.948;6.012;2023-12-28T11:31:41;15.00;99.90
52439;DHT22;73188;52.948;6.012;2023-12-28T11:42:08;15.10;99.90
52439;DHT22;73188;52.948;6.012;2023-12-28T11:52:35;15.30;99.90
52439;DHT22;73188;52.948;6.012;2023-12-28T12:03:02;15.20;99.90
52439;DHT22;73188;52.948;6.012;2023-12-28T12:13:28;15.20;99.90
52439;DHT22;73188;52.948;6.012;2023-12-28T12:23:55;15.10;99.90
52439;DHT22;73188;52.948;6.012;2023-12-28T12:34:21;15.00;99.90
52439;DHT22;73188;52.948;6.012;2023-12-28T12:44:47;15.00;99.90
52439;DHT22;73188;52.948;6.012;2023-12-28T12:55:13;15.00;99.90
52439;DHT22;73188;52.948;6.012;2023-12-28T13:05:39;15.00;99.90
52439;DHT22;73188;52.948;6.012;2023-12-28T13:16:07;15.00;99.90
52439;DHT22;73188;52.948;6.012;2023-12-28T13:26:32;14.90;99.90
52439;DHT22;73188;52.948;6.012;2023-12-28T13:36:58;14.90;99.90
52439;DHT22;73188;52.948;6.012;2023-12-28T13:47:26;14.80;99.90
52439;DHT22;73188;52.948;6.012;2023-12-28T13:57:52;14.80;99.90
52439;DHT22;73188;52.948;6.012;2023-12-28T14:08:18;14.70;99.90
52439;DHT22;73188;52.948;6.012;2023-12-28T14:18:43;14.60;99.90
52439;DHT22;73188;52.948;6.012;2023-12-28T14:29:10;14.40;99.90
52439;DHT22;73188;52.948;6.012;2023-12-28T14:39:36;14.40;99.90
52439;DHT22;73188;52.948;6.012;2023-12-28T14:50:03;14.50;99.90
52439;DHT22;73188;52.948;6.012;2023-12-28T15:00:31;14.60;99.90
52439;DHT22;73188;52.948;6.012;2023-12-28T15:10:57;14.60;99.90
52439;DHT22;73188;52.948;6.012;2023-12-28T15:21:23;14.60;99.90
52439;DHT22;73188;52.948;6.012;2023-12-28T15:31:49;14.60;99.90
52439;DHT22;73188;52.948;6.012;2023-12-28T15:42:15;14.60;99.90
52439;DHT22;73188;52.948;6.012;2023-12-28T15:52:41;14.60;99.90
52439;DHT22;73188;52.948;6.012;2023-12-28T16:03:07;14.60;99.90
52439;DHT22;73188;52.948;6.012;2023-12-28T16:13:33;14.60;99.90
52439;DHT22;73188;52.948;6.012;2023-12-28T16:23:59;14.60;99.90
52439;DHT22;73188;52.948;6.012;2023-12-28T16:34:29;14.60;99.90
52439;DHT22;73188;52.948;6.012;2023-12-28T16:44:55;14.60;99.90
52439;DHT22;73188;52.948;6.012;2023-12-28T16:55:20;14.60;99.90
52439;DHT22;73188;52.948;6.012;2023-12-28T17:05:47;14.50;99.90
52439;DHT22;73188;52.948;6.012;2023-12-28T17:16:13;14.50;99.90
52439;DHT22;73188;52.948;6.012;2023-12-28T17:26:46;14.60;99.90
52439;DHT22;73188;52.948;6.012;2023-12-28T17:37:13;14.70;99.90
52439;DHT22;73188;52.948;6.012;2023-12-28T17:48:05;14.60;99.90
52439;DHT22;73188;52.948;6.012;2023-12-28T17:58:31;14.50;99.90
52439;DHT22;73188;52.948;6.012;2023-12-28T18:08:58;14.50;99.90
52439;DHT22;73188;52.948;6.012;2023-12-28T18:19:24;14.50;99.90
52439;DHT22;73188;52.948;6.012;2023-12-28T18:29:50;14.60;99.90
52439;DHT22;73188;52.948;6.012;2023-12-28T18:40:18;14.60;99.90
52439;DHT22;73188;52.948;6.012;2023-12-28T18:50:45;14.70;99.90
52439;DHT22;73188;52.948;6.012;2023-12-28T19:01:11;14.60;99.90
52439;DHT22;73188;52.948;6.012;2023-12-28T19:11:37;14.50;99.90
52439;DHT22;73188;52.948;6.012;2023-12-28T19:22:03;14.40;99.90
52439;DHT22;73188;52.948;6.012;2023-12-28T19:32:30;14.50;99.90
52439;DHT22;73188;52.948;6.012;2023-12-28T19:42:55;14.60;99.90
52439;DHT22;73188;52.948;6.012;2023-12-28T19:53:21;14.60;99.90
52439;DHT22;73188;52.948;6.012;2023-12-28T20:03:47;14.40;99.90
52439;DHT22;73188;52.948;6.012;2023-12-28T20:14:14;14.60;99.90
52439;DHT22;73188;52.948;6.012;2023-12-28T20:24:41;14.30;99.90
52439;DHT22;73188;52.948;6.012;2023-12-28T20:35:07;14.30;99.90
52439;DHT22;73188;52.948;6.012;2023-12-28T20:45:33;14.40;99.90
52439;DHT22;73188;52.948;6.012;2023-12-28T20:55:59;14.40;99.90
52439;DHT22;73188;52.948;6.012;2023-12-28T21:06:25;14.50;99.90
52439;DHT22;73188;52.948;6.012;2023-12-28T21:16:51;14.50;99.90
52439;DHT22;73188;52.948;6.012;2023-12-28T21:27:16;14.60;99.90
52439;DHT22;73188;52.948;6.012;2023-12-28T21:37:42;14.40;99.90
52439;DHT22;73188;52.948;6.012;2023-12-28T21:48:08;14.50;99.90
52439;DHT22;73188;52.948;6.012;2023-12-28T21:58:34;14.60;99.90
52439;DHT22;73188;52.948;6.012;2023-12-28T22:09:00;14.60;99.90
52439;DHT22;73188;52.948;6.012;2023-12-28T22:19:25;14.80;99.90
52439;DHT22;73188;52.948;6.012;2023-12-28T22:29:53;14.70;99.90
52439;DHT22;73188;52.948;6.012;2023-12-28T22:40:19;14.90;99.90
52439;DHT22;73188;52.948;6.012;2023-12-28T22:50:45;14.80;99.90
52439;DHT22;73188;52.948;6.012;2023-12-28T23:01:11;15.00;99.90
52439;DHT22;73188;52.948;6.012;2023-12-28T23:11:38;15.00;99.90
52439;DHT22;73188;52.948;6.012;2023-12-28T23:22:04;14.90;99.90
52439;DHT22;73188;52.948;6.012;2023-12-28T23:32:29;14.80;99.90
52439;DHT22;73188;52.948;6.012;2023-12-28T23:42:55;14.80;99.90
52439;DHT22;73188;52.948;6.012;2023-12-28T23:53:21;14.90;99.90
